Time;durP1;ratioP1;P1;durP2;ratioP2;P2;SDS_P1;SDS_P2;PMS_P1;PMS_P2;Temp;Humidity;BMP_temperature;BMP_pressure;BME280_temperature;BME280_humidity;BME280_pressure;Samples;Min_cycle;Max_cycle;Signal;HPM_P1;HPM_P2
2023/03/22 00:00:39;;;;;;;65.08;34.83;;;;;;;5.57;76.60;101408.03;1936159;74;21019;-39
2023/03/22 00:03:07;;;;;;;49.70;27.55;;;;;;;5.52;76.55;101406.34;1936115;74;21460;-40
2023/03/22 00:05:36;;;;;;;25.97;14.30;;;;;;;5.41;76.54;101402.04;1935874;74;21018;-40
2023/03/22 00:08:05;;;;;;;26.37;13.08;;;;;;;5.35;76.51;101398.63;1936080;74;21059;-39
2023/03/22 00:10:36;;;;;;;31.10;11.53;;;;;;;5.30;76.49;101406.48;1936064;74;21025;-39
2023/03/22 00:13:06;;;;;;;24.65;12.28;;;;;;;5.25;76.53;101406.08;1935976;74;20993;-40
2023/03/22 00:15:36;;;;;;;14.65;7.55;;;;;;;5.20;76.51;101406.98;1936043;74;21468;-40
2023/03/22 00:18:05;;;;;;;15.58;7.17;;;;;;;5.17;76.45;101403.52;1907928;75;21422;-39
2023/03/22 00:20:35;;;;;;;12.00;6.33;;;;;;;5.14;76.45;101400.91;1901124;75;21130;-39
2023/03/22 00:23:03;;;;;;;11.60;6.87;;;;;;;5.09;76.43;101407.90;1900949;75;21059;-39
2023/03/22 00:25:32;;;;;;;13.08;5.83;;;;;;;5.02;76.48;101409.25;1901099;75;21008;-39
2023/03/22 00:28:00;;;;;;;13.35;4.80;;;;;;;4.99;76.58;101409.26;1901038;75;21418;-39
2023/03/22 00:30:29;;;;;;;11.05;4.40;;;;;;;4.94;76.63;101412.35;1901122;75;21051;-39
2023/03/22 00:32:58;;;;;;;10.90;5.40;;;;;;;4.88;76.63;101413.66;1901285;75;21486;-39
2023/03/22 00:35:27;;;;;;;11.18;4.78;;;;;;;4.80;76.71;101421.53;1901095;75;21027;-39
2023/03/22 00:37:55;;;;;;;10.30;5.30;;;;;;;4.76;76.72;101426.78;1901010;75;21043;-39
2023/03/22 00:40:24;;;;;;;9.98;4.55;;;;;;;4.71;76.69;101428.54;1917383;74;21107;-39
2023/03/22 00:42:53;;;;;;;6.78;3.20;;;;;;;4.67;76.73;101428.09;1917620;75;21153;-39
2023/03/22 00:45:21;;;;;;;11.45;4.25;;;;;;;4.63;77.10;101425.52;1917566;75;21004;-39
2023/03/22 00:47:50;;;;;;;10.43;4.45;;;;;;;4.62;77.03;101421.61;1897319;74;21080;-40
2023/03/22 00:50:19;;;;;;;12.47;5.58;;;;;;;4.60;77.00;101413.78;1836109;78;21599;-40
2023/03/22 00:52:48;;;;;;;11.03;4.42;;;;;;;4.58;77.10;101410.31;1836028;78;21153;-40
2023/03/22 00:55:17;;;;;;;11.15;4.12;;;;;;;4.56;77.07;101404.23;1836067;78;21072;-41
2023/03/22 00:57:46;;;;;;;7.67;4.17;;;;;;;4.55;77.04;101402.48;1854478;75;21557;-42
2023/03/22 01:00:15;;;;;;;8.50;2.37;;;;;;;4.55;77.01;101393.36;1866946;77;21048;-40
2023/03/22 01:02:46;;;;;;;11.00;2.45;;;;;;;4.50;77.00;101391.64;1867078;76;21079;-42
2023/03/22 01:05:16;;;;;;;6.90;2.62;;;;;;;4.44;77.15;101386.02;1866650;75;21161;-40
2023/03/22 01:07:45;;;;;;;4.95;2.08;;;;;;;4.39;77.22;101383.85;1869117;75;21016;-41
2023/03/22 01:10:13;;;;;;;9.18;2.65;;;;;;;4.37;77.20;101389.09;1867033;75;21146;-42
2023/03/22 01:12:42;;;;;;;9.43;2.77;;;;;;;4.36;77.23;101396.92;1867065;77;21125;-41
2023/03/22 01:15:11;;;;;;;15.63;7.85;;;;;;;4.34;77.35;101402.58;1866853;77;21126;-42
2023/03/22 01:17:40;;;;;;;23.42;12.63;;;;;;;4.30;77.47;101387.79;1804408;79;21071;-41
2023/03/22 01:20:10;;;;;;;23.42;13.15;;;;;;;4.27;77.58;101390.42;1860685;77;21125;-41
2023/03/22 01:22:39;;;;;;;23.87;11.43;;;;;;;4.20;77.72;101391.72;1835778;78;21038;-41
2023/03/22 01:25:09;;;;;;;9.98;4.92;;;;;;;4.18;77.70;101394.77;1835654;78;21496;-40
2023/03/22 01:27:38;;;;;;;6.10;3.05;;;;;;;4.19;77.63;101401.73;1835864;78;21065;-40
2023/03/22 01:30:07;;;;;;;4.58;2.87;;;;;;;4.18;77.58;101399.98;1835267;78;21049;-40
2023/03/22 01:32:37;;;;;;;7.47;3.45;;;;;;;4.16;77.54;101396.96;1867116;77;21050;-40
2023/03/22 01:35:07;;;;;;;15.65;3.58;;;;;;;4.12;77.57;101401.31;1857628;77;21033;-40
2023/03/22 01:37:36;;;;;;;9.48;4.12;;;;;;;4.09;77.60;101400.00;1815884;77;21055;-40
2023/03/22 01:40:06;;;;;;;6.92;3.58;;;;;;;4.05;77.68;101400.89;1833826;78;21134;-40
2023/03/22 01:42:35;;;;;;;8.60;2.62;;;;;;;4.01;77.75;101400.02;1891245;76;21115;-40
2023/03/22 01:45:17;;;;;;;5.90;4.05;;;;;;;4.00;77.91;101396.11;1891129;76;21472;-40
2023/03/22 01:47:57;;;;;;;7.10;3.90;;;;;;;3.98;77.99;101397.41;1872332;73;21037;-41
2023/03/22 01:50:26;;;;;;;7.70;3.08;;;;;;;3.94;78.09;101398.73;1949082;73;21052;-40
2023/03/22 01:52:57;;;;;;;6.87;2.80;;;;;;;3.86;78.11;101394.39;1949071;73;21032;-40
2023/03/22 01:55:28;;;;;;;7.33;3.33;;;;;;;3.82;78.31;101401.78;1947592;73;21105;-40
2023/03/22 01:57:59;;;;;;;8.00;3.98;;;;;;;3.82;78.61;101396.58;1917903;74;21127;-39
2023/03/22 02:00:30;;;;;;;12.25;3.92;;;;;;;3.79;78.61;101401.77;1927576;74;21558;-40
2023/03/22 02:03:12;;;;;;;9.78;3.37;;;;;;;3.74;78.82;101403.51;1928395;74;21112;-41
2023/03/22 02:05:44;;;;;;;17.27;3.87;;;;;;;3.73;78.75;101410.91;1929883;74;21555;-40
2023/03/22 02:08:13;;;;;;;12.03;3.10;;;;;;;3.67;78.81;101414.80;1930132;74;21478;-40
2023/03/22 02:10:53;;;;;;;11.40;3.30;;;;;;;3.62;78.91;101415.25;1864567;77;21601;-41
2023/03/22 02:13:37;;;;;;;9.85;4.03;;;;;;;3.62;79.05;101419.16;1897068;76;21161;-40
2023/03/22 02:16:28;;;;;;;7.35;4.25;;;;;;;3.62;79.20;101421.31;1922295;73;21114;-39
2023/03/22 02:19:01;;;;;;;10.00;4.05;;;;;;;3.63;79.09;101418.27;1948176;73;21093;-41
2023/03/22 02:22:08;;;;;;;12.55;4.05;;;;;;;3.61;79.21;101419.56;1948297;73;21076;-39
2023/03/22 02:24:49;;;;;;;10.68;3.80;;;;;;;3.59;79.13;101418.70;1948944;73;21056;-40
2023/03/22 02:27:54;;;;;;;9.60;4.05;;;;;;;3.59;79.22;101423.05;1946824;73;21580;-40
2023/03/22 02:30:32;;;;;;;6.60;3.60;;;;;;;3.61;79.09;101427.38;1948979;73;21475;-39
2023/03/22 02:33:04;;;;;;;12.75;4.00;;;;;;;3.61;78.99;101431.28;1948117;73;21557;-40
2023/03/22 02:35:49;;;;;;;21.60;4.92;;;;;;;3.61;78.96;101430.42;1884480;76;21162;-40
2023/03/22 02:38:51;;;;;;;12.45;4.70;;;;;;;3.63;78.96;101436.50;1915675;75;21125;-39
2023/03/22 02:41:50;;;;;;;9.70;4.45;;;;;;;3.63;78.93;101431.29;1947310;73;21098;-40
2023/03/22 02:44:21;;;;;;;10.35;4.70;;;;;;;3.65;78.89;101436.06;1948838;73;21114;-40
2023/03/22 02:47:05;;;;;;;15.98;6.00;;;;;;;3.68;78.90;101442.59;1948917;73;21016;-40
2023/03/22 02:49:40;;;;;;;9.73;5.97;;;;;;;3.71;78.95;101445.61;1942941;73;21607;-45
2023/03/22 02:52:16;;;;;;;11.33;8.45;;;;;;;3.77;79.05;101447.80;1938453;74;21049;-44
2023/03/22 02:54:50;;;;;;;12.88;9.35;;;;;;;3.82;79.07;101447.37;1898704;74;21060;-42
2023/03/22 02:57:46;;;;;;;19.27;11.35;;;;;;;3.91;78.94;101451.73;1939343;74;21009;-42
2023/03/22 03:00:17;;;;;;;17.82;13.28;;;;;;;3.97;78.79;101453.46;1939814;74;21570;-40
2023/03/22 03:02:49;;;;;;;17.35;6.50;;;;;;;4.01;78.62;101446.92;1939808;73;21017;-41
2023/03/22 03:05:20;;;;;;;9.10;3.70;;;;;;;4.03;78.55;101446.93;1938599;74;21116;-40
2023/03/22 03:07:51;;;;;;;18.00;3.27;;;;;;;4.01;78.52;101443.46;1939756;73;21017;-41
2023/03/22 03:10:22;;;;;;;9.65;3.20;;;;;;;4.00;78.58;101445.21;1939109;73;21048;-40
2023/03/22 03:12:50;;;;;;;10.50;3.37;;;;;;;4.01;78.57;101458.66;1937097;74;21456;-39
2023/03/22 03:15:22;;;;;;;8.50;3.85;;;;;;;4.03;78.49;101446.93;1939596;74;21098;-40
2023/03/22 03:18:02;;;;;;;15.28;5.30;;;;;;;4.07;78.44;101452.56;1924270;74;21134;-39
2023/03/22 03:20:53;;;;;;;15.38;9.38;;;;;;;4.12;78.47;101463.86;1939615;74;21025;-40
2023/03/22 03:23:41;;;;;;;24.25;10.03;;;;;;;4.16;78.50;101466.89;1934693;74;21102;-39
2023/03/22 03:26:13;;;;;;;17.80;6.92;;;;;;;4.21;78.48;101467.77;1939646;73;21053;-38
2023/03/22 03:28:51;;;;;;;17.40;8.18;;;;;;;4.27;78.38;101473.85;1936614;74;21071;-39
2023/03/22 03:31:42;;;;;;;20.80;5.33;;;;;;;4.32;78.33;101474.72;1904594;75;21085;-40
2023/03/22 03:34:35;;;;;;;5.70;4.50;;;;;;;4.37;78.30;101473.84;1932600;74;21025;-41
2023/03/22 03:37:08;;;;;;;7.83;3.72;;;;;;;4.39;78.18;101465.98;1939789;73;21092;-40
2023/03/22 03:39:40;;;;;;;8.13;3.42;;;;;;;4.40;78.13;101464.69;1939381;74;21037;-41
2023/03/22 03:42:11;;;;;;;11.20;2.95;;;;;;;4.41;78.10;101469.48;1939741;74;21096;-41
2023/03/22 03:44:40;;;;;;;4.80;2.98;;;;;;;4.42;78.12;101472.06;1939516;74;20982;-42
2023/03/22 03:47:10;;;;;;;4.65;3.50;;;;;;;4.41;78.08;101472.09;1939766;74;21444;-43
2023/03/22 03:49:40;;;;;;;4.67;2.42;;;;;;;4.44;78.09;101481.20;1905997;75;21045;-41
2023/03/22 03:52:10;;;;;;;6.95;2.55;;;;;;;4.48;78.05;101488.14;1906023;75;21147;-41
2023/03/22 03:54:38;;;;;;;13.65;3.80;;;;;;;4.52;78.04;101484.67;1929718;74;21012;-42
2023/03/22 03:57:09;;;;;;;11.18;2.83;;;;;;;4.55;78.04;101484.64;1939737;74;21499;-45
2023/03/22 03:59:38;;;;;;;4.72;2.47;;;;;;;4.59;78.05;101489.42;1939977;73;21561;-45
2023/03/22 04:02:08;;;;;;;5.08;2.35;;;;;;;4.63;77.98;101484.21;1938489;74;21535;-46
2023/03/22 04:04:37;;;;;;;4.92;3.08;;;;;;;4.68;77.88;101485.94;1939692;74;21016;-46
2023/03/22 04:07:07;;;;;;;10.85;2.87;;;;;;;4.73;77.83;101492.02;1939838;73;21548;-41
2023/03/22 04:09:39;;;;;;;5.58;2.20;;;;;;;4.78;77.77;101491.56;1923839;74;21059;-40
2023/03/22 04:12:09;;;;;;;5.80;2.72;;;;;;;4.84;77.71;101494.15;1900397;74;21055;-40
2023/03/22 04:14:38;;;;;;;7.42;2.67;;;;;;;4.89;77.63;101498.92;1903714;75;21054;-43
2023/03/22 04:17:09;;;;;;;19.30;8.88;;;;;;;4.94;77.61;101494.56;1902338;75;21032;-40
2023/03/22 04:19:38;;;;;;;29.07;13.78;;;;;;;5.00;77.53;101489.75;1904661;75;21459;-40
2023/03/22 04:22:13;;;;;;;14.38;8.43;;;;;;;5.03;77.41;101493.22;1904449;75;21150;-42
2023/03/22 04:24:38;;;;;;;20.48;9.95;;;;;;;5.08;77.36;101494.94;1902961;75;21063;-39
2023/03/22 04:27:07;;;;;;;14.45;8.65;;;;;;;5.10;77.35;101497.09;1872042;77;21067;-39
2023/03/22 04:29:40;;;;;;;16.82;7.37;;;;;;;5.15;77.40;101496.65;1887792;76;21162;-39
2023/03/22 04:32:15;;;;;;;8.93;4.90;;;;;;;5.14;77.34;101503.59;1887992;76;21582;-40
2023/03/22 04:34:45;;;;;;;14.35;4.22;;;;;;;5.20;77.30;101506.61;1890954;76;21546;-39
2023/03/22 04:37:16;;;;;;;11.33;2.95;;;;;;;5.25;77.25;101512.69;1923465;74;21102;-41
2023/03/22 04:39:50;;;;;;;12.73;3.25;;;;;;;5.26;77.29;101518.80;1910410;73;21055;-40
2023/03/22 04:42:32;;;;;;;12.00;3.52;;;;;;;5.27;77.21;101517.45;1923027;74;21073;-41
2023/03/22 04:45:10;;;;;;;8.55;3.70;;;;;;;5.30;77.28;101511.37;1914478;74;21125;-40
2023/03/22 04:47:40;;;;;;;15.53;4.03;;;;;;;5.37;77.35;101513.94;1893930;74;21040;-40
2023/03/22 04:50:09;;;;;;;11.53;6.50;;;;;;;5.39;77.36;101516.11;1921693;74;21535;-41
2023/03/22 04:52:39;;;;;;;10.93;8.65;;;;;;;5.48;77.36;101515.61;1916495;74;21133;-41
2023/03/22 04:55:09;;;;;;;16.07;8.23;;;;;;;5.60;77.29;101517.72;1917688;75;21525;-41
2023/03/22 04:57:37;;;;;;;16.42;7.62;;;;;;;5.74;77.22;101517.64;1917406;75;21086;-41
2023/03/22 05:00:08;;;;;;;12.18;7.65;;;;;;;5.87;77.09;101513.20;1917533;75;21072;-42
2023/03/22 05:02:39;;;;;;;12.55;7.55;;;;;;;6.03;77.04;101513.11;1917598;75;21036;-41
2023/03/22 05:05:09;;;;;;;12.45;7.08;;;;;;;6.21;76.94;101508.18;1917562;74;21513;-40
2023/03/22 05:07:40;;;;;;;12.90;8.00;;;;;;;6.45;76.88;101514.48;1917173;73;21056;-40
2023/03/22 05:10:10;;;;;;;13.00;8.55;;;;;;;6.74;76.81;101510.72;1917398;74;21052;-39
2023/03/22 05:12:39;;;;;;;12.05;7.40;;;;;;;7.13;76.52;101511.99;1917574;75;21040;-40
2023/03/22 05:15:13;;;;;;;13.50;5.72;;;;;;;7.53;76.53;101507.55;1917077;74;21072;-40
2023/03/22 05:17:42;;;;;;;11.63;4.92;;;;;;;7.81;76.38;101513.69;1917402;75;21502;-40
2023/03/22 05:20:12;;;;;;;10.25;4.65;;;;;;;8.01;76.14;101512.53;1917576;75;21072;-40
2023/03/22 05:22:41;;;;;;;10.38;5.08;;;;;;;8.21;75.95;101512.20;1917412;75;21040;-40
2023/03/22 05:25:11;;;;;;;8.88;4.85;;;;;;;8.41;75.77;101509.21;1917612;75;21009;-41
2023/03/22 05:27:41;;;;;;;8.93;4.70;;;;;;;8.67;75.64;101507.48;1917098;74;21079;-40
2023/03/22 05:30:21;;;;;;;11.63;6.42;;;;;;;8.93;75.46;101508.28;1914749;75;21498;-39
2023/03/22 05:32:51;;;;;;;8.73;5.65;;;;;;;9.65;75.52;101498.84;1916691;75;21546;-40
2023/03/22 05:35:20;;;;;;;14.63;5.53;;;;;;;10.32;74.90;101505.17;1917519;75;21130;-39
2023/03/22 05:37:50;;;;;;;15.25;5.22;;;;;;;11.00;74.66;101504.20;1917280;74;21060;-39
2023/03/22 05:40:21;;;;;;;10.38;5.53;;;;;;;10.91;74.28;101498.73;1917617;74;21064;-43
2023/03/22 05:42:49;;;;;;;13.93;4.42;;;;;;;10.50;74.12;101508.63;1917598;74;21032;-41
2023/03/22 05:45:21;;;;;;;14.23;5.08;;;;;;;10.14;73.78;101503.83;1917046;74;21535;-40
2023/03/22 05:47:52;;;;;;;16.25;5.37;;;;;;;9.81;73.72;101501.10;1915731;75;21188;-40
2023/03/22 05:50:23;;;;;;;12.65;4.33;;;;;;;9.55;73.72;101501.25;1918244;73;21659;-42
2023/03/22 05:52:52;;;;;;;15.43;3.92;;;;;;;9.30;73.77;101501.41;1905933;74;21056;-41
2023/03/22 05:55:34;;;;;;;8.53;4.12;;;;;;;9.14;73.83;101503.03;1897031;73;21075;-40
2023/03/22 05:58:04;;;;;;;11.63;3.47;;;;;;;9.08;73.85;101503.16;1923769;73;21060;-39
2023/03/22 06:00:34;;;;;;;8.48;3.92;;;;;;;9.08;73.81;101496.59;1923686;74;21171;-39
2023/03/22 06:03:17;;;;;;;9.55;3.60;;;;;;;9.16;73.66;101493.80;1917556;74;21071;-44
2023/03/22 06:05:49;;;;;;;18.85;4.05;;;;;;;9.26;73.41;101496.20;1923372;74;21215;-40
2023/03/22 06:08:18;;;;;;;9.40;4.20;;;;;;;9.40;73.31;101492.41;1923708;74;21546;-40
2023/03/22 06:10:49;;;;;;;7.65;3.65;;;;;;;9.52;73.35;101492.14;1922840;74;21597;-41
2023/03/22 06:13:19;;;;;;;8.03;3.80;;;;;;;9.76;73.21;101493.34;1939909;73;21027;-45
2023/03/22 06:15:49;;;;;;;5.53;3.02;;;;;;;9.96;73.04;101500.76;1912095;74;21117;-38
2023/03/22 06:18:20;;;;;;;8.85;3.47;;;;;;;10.18;72.79;101496.26;1904412;75;21078;-42
2023/03/22 06:20:50;;;;;;;9.38;3.80;;;;;;;10.29;72.78;101492.92;1903299;75;21086;-40
2023/03/22 06:23:20;;;;;;;8.50;2.90;;;;;;;10.47;72.52;101499.48;1904402;75;21126;-40
2023/03/22 06:25:50;;;;;;;4.40;2.50;;;;;;;10.64;72.12;101496.40;1904795;75;21083;-40
2023/03/22 06:28:19;;;;;;;6.70;2.90;;;;;;;10.86;71.71;101484.81;1904661;75;21502;-41
2023/03/22 06:30:52;;;;;;;9.73;3.87;;;;;;;11.05;71.49;101485.17;1906488;74;21110;-39
2023/03/22 06:33:28;;;;;;;12.05;4.25;;;;;;;11.35;71.27;101483.84;1894002;75;21451;-39
2023/03/22 06:35:59;;;;;;;12.37;6.60;;;;;;;11.71;70.90;101490.20;1903632;75;21067;-39
2023/03/22 06:38:30;;;;;;;19.37;6.47;;;;;;;12.21;70.77;101489.05;1884404;75;21504;-40
2023/03/22 06:40:59;;;;;;;13.53;5.92;;;;;;;12.80;70.53;101486.98;1899050;73;21520;-39
2023/03/22 06:43:29;;;;;;;18.05;6.87;;;;;;;13.23;70.48;101485.39;1933167;73;21503;-42
2023/03/22 06:45:59;;;;;;;21.50;7.33;;;;;;;13.53;69.66;101481.19;1944702;73;21427;-43
2023/03/22 06:48:30;;;;;;;23.73;7.58;;;;;;;13.66;68.73;101477.13;1973714;73;21142;-44
2023/03/22 06:51:00;;;;;;;21.15;7.35;;;;;;;13.90;68.29;101466.84;1972782;73;21036;-46
2023/03/22 06:53:33;;;;;;;19.92;7.12;;;;;;;14.19;67.47;101471.87;1936385;72;21093;-42
2023/03/22 06:56:02;;;;;;;19.45;8.00;;;;;;;14.43;66.99;101473.92;1933630;74;21118;-41
2023/03/22 06:58:33;;;;;;;19.70;8.40;;;;;;;14.73;66.17;101477.50;1934653;72;21077;-41
2023/03/22 07:01:01;;;;;;;24.85;7.87;;;;;;;15.08;65.70;101468.41;1948832;73;21033;-41
2023/03/22 07:03:31;;;;;;;32.67;9.23;;;;;;;15.40;65.28;101470.42;1900931;75;21106;-40
2023/03/22 07:06:07;;;;;;;24.90;9.83;;;;;;;15.72;64.52;101470.65;1917113;74;21090;-43
2023/03/22 07:08:38;;;;;;;20.43;9.55;;;;;;;15.87;63.92;101470.87;1936172;74;21057;-40
2023/03/22 07:11:07;;;;;;;20.70;9.25;;;;;;;16.05;63.48;101476.59;1875748;75;21180;-41
2023/03/22 07:13:36;;;;;;;22.62;8.80;;;;;;;16.01;62.92;101473.70;1884306;76;21181;-42
2023/03/22 07:16:07;;;;;;;28.95;10.60;;;;;;;16.00;62.35;101473.30;1861487;76;21131;-43
2023/03/22 07:18:43;;;;;;;23.07;9.08;;;;;;;16.76;61.56;101467.60;1900479;75;21516;-43
2023/03/22 07:21:12;;;;;;;23.83;9.05;;;;;;;17.44;60.53;101464.78;1901097;75;21098;-43
2023/03/22 07:23:42;;;;;;;21.80;8.23;;;;;;;17.90;59.89;101470.66;1900887;75;21061;-42
2023/03/22 07:26:15;;;;;;;18.77;8.28;;;;;;;17.77;60.25;101470.95;1900803;75;21093;-43
2023/03/22 07:28:45;;;;;;;21.95;8.33;;;;;;;17.38;59.60;101466.95;1905290;74;21094;-43
2023/03/22 07:31:16;;;;;;;20.95;8.25;;;;;;;17.16;59.62;101465.48;1936179;74;21588;-43
2023/03/22 07:34:05;;;;;;;10.68;4.97;;;;;;;16.90;59.60;101462.44;1935809;74;21072;-43
2023/03/22 07:36:38;;;;;;;13.65;4.65;;;;;;;16.82;58.99;101468.63;1935587;74;21089;-40
2023/03/22 07:39:09;;;;;;;10.18;4.92;;;;;;;16.59;59.04;101464.03;1935977;74;21081;-44
2023/03/22 07:41:39;;;;;;;8.78;2.22;;;;;;;16.48;58.92;101474.37;1935908;74;21113;-43
2023/03/22 07:44:09;;;;;;;7.60;3.70;;;;;;;16.29;58.37;101463.00;1930393;73;21102;-42
2023/03/22 07:46:40;;;;;;;7.65;3.27;;;;;;;16.33;58.14;101460.56;1883738;74;21060;-42
2023/03/22 07:49:20;;;;;;;8.58;3.67;;;;;;;16.67;57.66;101465.44;1877221;75;21083;-39
2023/03/22 07:52:05;;;;;;;2.17;1.30;;;;;;;17.03;57.23;101459.12;1928218;73;21074;-41
2023/03/22 07:54:34;;;;;;;4.58;1.72;;;;;;;17.56;56.56;101453.94;1923928;74;21044;-41
2023/03/22 07:57:05;;;;;;;6.40;1.70;;;;;;;17.73;56.00;101455.14;1923958;73;21068;-45
2023/03/22 07:59:36;;;;;;;3.02;1.62;;;;;;;18.04;55.15;101445.39;1924072;73;21092;-42
2023/03/22 08:02:06;;;;;;;5.50;2.35;;;;;;;18.20;54.36;101445.32;1923772;73;21032;-42
2023/03/22 08:04:36;;;;;;;6.37;2.40;;;;;;;18.02;53.20;101441.97;1924252;73;21066;-44
2023/03/22 08:07:08;;;;;;;3.10;1.67;;;;;;;18.03;53.02;101445.00;1921919;73;21084;-41
2023/03/22 08:09:37;;;;;;;7.37;2.33;;;;;;;18.43;52.59;101438.61;1899030;75;21021;-43
2023/03/22 08:12:06;;;;;;;4.58;2.40;;;;;;;19.37;51.56;101433.23;1903431;74;21705;-43
2023/03/22 08:14:36;;;;;;;3.35;2.02;;;;;;;19.78;50.59;101430.52;1903879;74;21514;-43
2023/03/22 08:17:06;;;;;;;4.65;2.12;;;;;;;19.70;50.74;101430.61;1903576;74;21135;-41
2023/03/22 08:19:35;;;;;;;4.42;1.90;;;;;;;19.75;51.15;101431.20;1869003;77;21047;-41
2023/03/22 08:22:50;;;;;;;4.15;2.10;;;;;;;19.61;51.22;101430.28;1885201;75;21498;-41
2023/03/22 08:25:31;;;;;;;6.60;2.60;;;;;;;19.67;50.87;101433.86;1901102;75;21095;-40
2023/03/22 08:28:01;;;;;;;6.65;2.98;;;;;;;18.95;51.07;101439.03;1899846;75;21084;-39
2023/03/22 08:30:30;;;;;;;7.75;3.20;;;;;;;18.35;51.12;101431.54;1898790;75;21173;-40
2023/03/22 08:32:59;;;;;;;7.08;2.83;;;;;;;17.75;51.50;101432.42;1915836;74;21118;-40
2023/03/22 08:35:27;;;;;;;10.70;2.83;;;;;;;17.95;51.87;101427.29;1889358;76;21111;-41
2023/03/22 08:37:57;;;;;;;9.13;2.62;;;;;;;18.57;51.56;101426.23;1876843;76;21039;-40
2023/03/22 08:40:27;;;;;;;4.10;1.55;;;;;;;18.71;50.11;101422.23;1865161;75;21103;-40
2023/03/22 08:42:58;;;;;;;7.03;2.47;;;;;;;18.36;49.64;101425.75;1855963;77;21233;-40
2023/03/22 08:45:28;;;;;;;6.97;2.65;;;;;;;17.78;50.23;101435.36;1902740;74;21209;-40
2023/03/22 08:47:59;;;;;;;3.08;1.55;;;;;;;18.08;50.54;101425.61;1893223;73;21118;-41
2023/03/22 08:50:28;;;;;;;10.08;3.47;;;;;;;18.44;49.70;101431.02;1894449;74;21127;-41
2023/03/22 08:53:01;;;;;;;8.85;3.15;;;;;;;18.61;48.48;101420.63;1930322;72;21562;-39
2023/03/22 08:55:36;;;;;;;5.15;2.47;;;;;;;18.63;49.00;101428.05;1923791;74;21246;-40
2023/03/22 08:58:13;;;;;;;8.10;3.05;;;;;;;18.31;49.63;101439.34;1923523;74;21455;-41
2023/03/22 09:00:43;;;;;;;7.50;3.92;;;;;;;18.47;49.93;101425.47;1922202;74;21523;-40
2023/03/22 09:03:15;;;;;;;9.30;4.97;;;;;;;18.56;50.17;101424.53;1923876;74;21159;-41
2023/03/22 09:05:44;;;;;;;13.90;6.37;;;;;;;18.35;50.38;101426.20;1924311;74;21103;-40
2023/03/22 09:08:13;;;;;;;11.78;3.58;;;;;;;18.14;50.72;101430.55;1902835;75;21022;-41
2023/03/22 09:10:46;;;;;;;11.88;5.17;;;;;;;18.05;50.58;101422.27;1891830;75;21074;-41
2023/03/22 09:13:15;;;;;;;7.10;3.70;;;;;;;18.04;51.00;101420.08;1839144;77;21134;-40
2023/03/22 09:15:46;;;;;;;8.95;3.15;;;;;;;17.84;51.02;101427.89;1869972;76;21130;-40
2023/03/22 09:18:23;;;;;;;7.95;3.30;;;;;;;17.52;51.42;101423.96;1859560;76;21561;-39
2023/03/22 09:20:52;;;;;;;10.75;3.58;;;;;;;17.24;51.91;101419.33;1860460;77;21517;-39
2023/03/22 09:23:23;;;;;;;8.13;2.98;;;;;;;16.94;51.91;101424.08;1891129;76;21583;-40
2023/03/22 09:25:52;;;;;;;7.50;3.30;;;;;;;16.63;52.25;101424.00;1892760;76;21156;-39
2023/03/22 09:28:22;;;;;;;11.00;2.77;;;;;;;16.51;52.64;101417.08;1892428;76;21107;-40
2023/03/22 09:30:52;;;;;;;7.80;2.90;;;;;;;16.46;53.00;101417.78;1892351;76;21075;-40
2023/03/22 09:33:22;;;;;;;13.03;3.50;;;;;;;16.43;53.11;101428.56;1891703;76;21066;-39
2023/03/22 09:35:53;;;;;;;7.60;3.30;;;;;;;16.21;53.24;101424.39;1892542;76;21608;-40
2023/03/22 09:38:21;;;;;;;10.63;5.55;;;;;;;15.92;53.21;101417.06;1892764;76;21046;-40
2023/03/22 09:40:59;;;;;;;11.63;5.05;;;;;;;15.77;53.56;101418.70;1892794;76;21139;-41
2023/03/22 09:43:24;;;;;;;9.78;4.47;;;;;;;15.91;53.77;101408.69;1900956;75;21332;-40
2023/03/22 09:45:53;;;;;;;6.58;3.05;;;;;;;16.02;53.71;101412.98;1902640;75;21096;-39
2023/03/22 09:48:24;;;;;;;11.00;4.10;;;;;;;16.19;53.69;101414.32;1902667;75;21039;-39
2023/03/22 09:50:55;;;;;;;11.08;4.65;;;;;;;16.39;53.64;101413.73;1890845;76;21129;-40
2023/03/22 09:53:26;;;;;;;9.30;3.52;;;;;;;16.57;53.30;101408.77;1890660;75;21150;-40
2023/03/22 09:56:00;;;;;;;7.85;3.20;;;;;;;16.71;53.12;101409.81;1880079;76;21059;-41
2023/03/22 09:59:04;;;;;;;10.43;4.17;;;;;;;16.55;53.00;101412.45;1880901;76;21173;-40
2023/03/22 10:01:52;;;;;;;12.97;4.43;;;;;;;16.27;53.01;101407.72;1881354;76;21477;-39
2023/03/22 10:04:25;;;;;;;10.50;5.30;;;;;;;16.05;53.41;101396.90;1880782;76;22211;-39
2023/03/22 10:06:58;;;;;;;16.75;5.53;;;;;;;15.90;53.57;101399.87;1880227;76;21035;-40
2023/03/22 10:09:29;;;;;;;14.23;4.87;;;;;;;15.78;53.72;101409.78;1860700;77;21436;-40
2023/03/22 10:12:06;;;;;;;15.30;5.30;;;;;;;15.76;53.91;101398.38;1879492;76;21040;-41
2023/03/22 10:14:44;;;;;;;10.50;4.30;;;;;;;15.77;53.73;101399.63;1892478;76;21448;-41
2023/03/22 10:17:21;;;;;;;10.38;4.80;;;;;;;15.71;53.73;101389.27;1893283;76;21555;-41
2023/03/22 10:20:08;;;;;;;13.90;5.05;;;;;;;15.75;53.93;101386.91;1893661;75;21028;-38
2023/03/22 10:22:40;;;;;;;10.28;4.17;;;;;;;15.80;54.00;101390.16;1848971;76;21574;-39
2023/03/22 10:25:11;;;;;;;13.15;4.40;;;;;;;15.86;54.13;101388.14;1893664;76;21555;-39
2023/03/22 10:27:40;;;;;;;9.93;4.37;;;;;;;15.87;54.07;101387.22;1893150;75;21530;-40
2023/03/22 10:30:15;;;;;;;13.98;4.25;;;;;;;15.82;54.09;101384.34;1893563;76;21136;-40
2023/03/22 10:32:46;;;;;;;12.13;4.42;;;;;;;15.77;54.04;101381.52;1892475;75;21030;-41
2023/03/22 10:35:16;;;;;;;6.60;3.60;;;;;;;15.67;54.16;101384.20;1893556;76;21115;-41
2023/03/22 10:37:48;;;;;;;12.13;5.72;;;;;;;15.63;54.20;101384.83;1893257;76;21018;-40
2023/03/22 10:40:23;;;;;;;14.30;4.65;;;;;;;15.63;54.32;101375.53;1893643;76;21034;-40
2023/03/22 10:42:54;;;;;;;8.30;4.83;;;;;;;15.72;54.28;101372.89;1891946;74;21557;-39
2023/03/22 10:45:26;;;;;;;15.32;5.10;;;;;;;15.78;54.19;101380.09;1893515;76;21030;-40
2023/03/22 10:48:00;;;;;;;8.25;4.62;;;;;;;15.88;54.14;101372.98;1893461;76;21010;-42
2023/03/22 10:50:31;;;;;;;13.38;4.55;;;;;;;15.95;54.18;101371.73;1893268;76;21109;-40
2023/03/22 10:53:22;;;;;;;11.18;4.85;;;;;;;15.91;53.92;101366.20;1893422;76;21067;-40
2023/03/22 10:55:51;;;;;;;11.43;4.62;;;;;;;15.82;53.85;101363.53;1915698;74;21158;-40
2023/03/22 10:58:23;;;;;;;10.45;3.98;;;;;;;15.86;54.05;101352.30;1917455;75;21056;-43
2023/03/22 11:00:54;;;;;;;12.88;4.85;;;;;;;15.93;53.82;101352.37;1917590;75;21119;-39
2023/03/22 11:03:31;;;;;;;8.43;3.83;;;;;;;15.92;53.58;101355.98;1917698;75;21052;-39
2023/03/22 11:06:12;;;;;;;12.13;4.72;;;;;;;15.91;53.39;101353.77;1916744;74;21103;-41
2023/03/22 11:08:56;;;;;;;11.25;4.28;;;;;;;15.89;53.31;101352.99;1917620;75;21048;-39
2023/03/22 11:11:36;;;;;;;8.68;3.98;;;;;;;15.97;53.50;101357.45;1917598;75;21468;-41
2023/03/22 11:14:32;;;;;;;10.25;4.53;;;;;;;16.06;53.61;101352.11;1914620;73;21083;-40
2023/03/22 11:17:03;;;;;;;12.65;4.25;;;;;;;15.95;53.26;101361.11;1884932;76;21138;-40
2023/03/22 11:19:35;;;;;;;11.95;5.35;;;;;;;15.64;53.18;101356.03;1902544;75;21511;-40
2023/03/22 11:22:06;;;;;;;9.75;3.67;;;;;;;15.49;53.73;101350.99;1902761;75;21029;-39
2023/03/22 11:24:35;;;;;;;13.72;5.03;;;;;;;15.43;53.96;101352.16;1900851;75;21031;-39
2023/03/22 11:27:23;;;;;;;11.68;4.58;;;;;;;15.44;54.34;101353.89;1933882;74;21122;-39
2023/03/22 11:29:54;;;;;;;20.12;5.47;;;;;;;15.50;54.49;101349.22;1936170;74;21537;-40
2023/03/22 11:32:29;;;;;;;15.88;5.47;;;;;;;15.54;54.63;101350.30;1936278;74;21013;-40
2023/03/22 11:35:03;;;;;;;7.87;3.42;;;;;;;15.59;54.76;101350.94;1934634;74;21094;-40
2023/03/22 11:37:32;;;;;;;13.28;5.12;;;;;;;15.64;54.85;101348.06;1933523;74;21021;-40
2023/03/22 11:40:03;;;;;;;9.98;5.42;;;;;;;15.55;54.97;101345.40;1936131;74;21021;-41
2023/03/22 11:42:35;;;;;;;13.30;6.83;;;;;;;15.49;55.14;101348.81;1936149;74;21103;-40
2023/03/22 11:45:04;;;;;;;20.23;5.72;;;;;;;15.39;55.33;101347.09;1936118;74;21014;-40
2023/03/22 11:47:35;;;;;;;13.90;7.65;;;;;;;15.34;55.51;101344.66;1935746;74;21018;-41
2023/03/22 11:50:07;;;;;;;15.18;6.58;;;;;;;15.37;55.55;101343.66;1936258;74;21098;-40